sensor_id;sensor_type;location;lat;lon;timestamp;P1;durP1;ratioP1;P2;durP2;ratioP2
21833;SDS011;11079;51.092;3.458;2023-03-01T00:01:44;12.57;;;8.40;;
21833;SDS011;11079;51.092;3.458;2023-03-01T00:04:11;10.33;;;8.07;;
21833;SDS011;11079;51.092;3.458;2023-03-01T00:06:38;14.67;;;8.07;;
21833;SDS011;11079;51.092;3.458;2023-03-01T00:09:06;12.47;;;8.40;;
21833;SDS011;11079;51.092;3.458;2023-03-01T00:11:32;12.97;;;9.07;;
21833;SDS011;11079;51.092;3.458;2023-03-01T00:13:59;11.27;;;8.20;;
21833;SDS011;11079;51.092;3.458;2023-03-01T00:16:30;10.90;;;8.13;;
21833;SDS011;11079;51.092;3.458;2023-03-01T00:18:59;13.43;;;9.17;;
21833;SDS011;11079;51.092;3.458;2023-03-01T00:21:31;13.60;;;8.27;;
21833;SDS011;11079;51.092;3.458;2023-03-01T00:24:00;14.17;;;8.10;;
21833;SDS011;11079;51.092;3.458;2023-03-01T00:26:29;12.20;;;9.13;;
21833;SDS011;11079;51.092;3.458;2023-03-01T00:28:57;11.73;;;8.40;;
21833;SDS011;11079;51.092;3.458;2023-03-01T00:31:33;10.93;;;8.80;;
21833;SDS011;11079;51.092;3.458;2023-03-01T00:34:00;12.60;;;8.87;;
21833;SDS011;11079;51.092;3.458;2023-03-01T00:36:33;12.47;;;8.87;;
21833;SDS011;11079;51.092;3.458;2023-03-01T00:39:03;11.57;;;8.27;;
21833;SDS011;11079;51.092;3.458;2023-03-01T00:41:32;14.10;;;9.57;;
21833;SDS011;11079;51.092;3.458;2023-03-01T00:44:00;14.80;;;9.40;;
21833;SDS011;11079;51.092;3.458;2023-03-01T00:46:26;12.63;;;9.53;;
21833;SDS011;11079;51.092;3.458;2023-03-01T00:48:55;13.90;;;9.57;;
21833;SDS011;11079;51.092;3.458;2023-03-01T00:51:24;13.10;;;9.83;;
21833;SDS011;11079;51.092;3.458;2023-03-01T00:53:52;13.63;;;10.10;;
21833;SDS011;11079;51.092;3.458;2023-03-01T00:56:19;14.93;;;10.47;;
21833;SDS011;11079;51.092;3.458;2023-03-01T00:58:46;16.10;;;10.83;;
21833;SDS011;11079;51.092;3.458;2023-03-01T01:01:16;14.97;;;10.73;;
21833;SDS011;11079;51.092;3.458;2023-03-01T01:06:16;14.30;;;10.80;;
21833;SDS011;11079;51.092;3.458;2023-03-01T01:08:45;15.43;;;10.73;;
21833;SDS011;11079;51.092;3.458;2023-03-01T01:11:11;16.10;;;11.17;;
21833;SDS011;11079;51.092;3.458;2023-03-01T01:13:38;16.67;;;10.80;;
21833;SDS011;11079;51.092;3.458;2023-03-01T01:16:05;21.87;;;12.07;;
21833;SDS011;11079;51.092;3.458;2023-03-01T01:18:32;18.13;;;12.10;;
21833;SDS011;11079;51.092;3.458;2023-03-01T01:21:02;17.77;;;12.07;;
21833;SDS011;11079;51.092;3.458;2023-03-01T01:23:33;18.60;;;12.33;;
21833;SDS011;11079;51.092;3.458;2023-03-01T01:26:18;18.33;;;12.60;;
21833;SDS011;11079;51.092;3.458;2023-03-01T01:28:46;17.07;;;12.80;;
21833;SDS011;11079;51.092;3.458;2023-03-01T01:31:13;16.37;;;12.00;;
21833;SDS011;11079;51.092;3.458;2023-03-01T01:33:40;21.50;;;13.70;;
21833;SDS011;11079;51.092;3.458;2023-03-01T01:36:06;17.47;;;12.77;;
21833;SDS011;11079;51.092;3.458;2023-03-01T01:38:35;19.23;;;12.40;;
21833;SDS011;11079;51.092;3.458;2023-03-01T01:41:02;18.40;;;13.23;;
21833;SDS011;11079;51.092;3.458;2023-03-01T01:43:32;19.33;;;12.87;;
21833;SDS011;11079;51.092;3.458;2023-03-01T01:46:01;18.27;;;13.60;;
21833;SDS011;11079;51.092;3.458;2023-03-01T01:51:54;17.93;;;13.83;;
21833;SDS011;11079;51.092;3.458;2023-03-01T01:54:41;20.13;;;13.73;;
21833;SDS011;11079;51.092;3.458;2023-03-01T01:57:21;20.57;;;14.80;;
21833;SDS011;11079;51.092;3.458;2023-03-01T01:59:54;20.00;;;15.60;;
21833;SDS011;11079;51.092;3.458;2023-03-01T02:02:23;23.37;;;14.70;;
21833;SDS011;11079;51.092;3.458;2023-03-01T02:04:53;22.03;;;15.50;;
21833;SDS011;11079;51.092;3.458;2023-03-01T02:07:35;23.10;;;17.07;;
21833;SDS011;11079;51.092;3.458;2023-03-01T02:10:04;21.17;;;16.03;;
21833;SDS011;11079;51.092;3.458;2023-03-01T02:12:34;24.07;;;16.73;;
21833;SDS011;11079;51.092;3.458;2023-03-01T02:15:03;22.17;;;15.80;;
21833;SDS011;11079;51.092;3.458;2023-03-01T02:17:30;25.93;;;16.47;;
21833;SDS011;11079;51.092;3.458;2023-03-01T02:20:03;24.27;;;16.87;;
21833;SDS011;11079;51.092;3.458;2023-03-01T02:22:49;21.87;;;16.10;;
21833;SDS011;11079;51.092;3.458;2023-03-01T02:30:22;24.43;;;16.83;;
21833;SDS011;11079;51.092;3.458;2023-03-01T02:32:51;25.00;;;15.73;;
21833;SDS011;11079;51.092;3.458;2023-03-01T02:35:18;22.80;;;16.53;;
21833;SDS011;11079;51.092;3.458;2023-03-01T02:37:46;24.87;;;17.00;;
21833;SDS011;11079;51.092;3.458;2023-03-01T02:40:13;26.53;;;17.47;;
21833;SDS011;11079;51.092;3.458;2023-03-01T02:43:00;24.87;;;17.13;;
21833;SDS011;11079;51.092;3.458;2023-03-01T02:45:26;28.53;;;17.30;;
21833;SDS011;11079;51.092;3.458;2023-03-01T02:47:56;24.77;;;17.57;;
21833;SDS011;11079;51.092;3.458;2023-03-01T02:56:03;25.43;;;17.70;;
21833;SDS011;11079;51.092;3.458;2023-03-01T02:58:37;22.00;;;17.00;;
21833;SDS011;11079;51.092;3.458;2023-03-01T03:01:16;27.43;;;18.93;;
21833;SDS011;11079;51.092;3.458;2023-03-01T03:03:45;26.60;;;17.77;;
21833;SDS011;11079;51.092;3.458;2023-03-01T03:06:17;26.50;;;17.73;;
21833;SDS011;11079;51.092;3.458;2023-03-01T03:08:43;24.10;;;17.53;;
21833;SDS011;11079;51.092;3.458;2023-03-01T03:11:08;24.63;;;17.33;;
21833;SDS011;11079;51.092;3.458;2023-03-01T03:13:34;28.20;;;17.80;;
21833;SDS011;11079;51.092;3.458;2023-03-01T03:16:00;27.00;;;18.67;;
21833;SDS011;11079;51.092;3.458;2023-03-01T03:18:27;28.63;;;19.90;;
21833;SDS011;11079;51.092;3.458;2023-03-01T03:20:53;27.93;;;19.47;;
21833;SDS011;11079;51.092;3.458;2023-03-01T03:23:22;31.07;;;19.53;;
21833;SDS011;11079;51.092;3.458;2023-03-01T03:25:49;26.40;;;18.93;;
21833;SDS011;11079;51.092;3.458;2023-03-01T03:28:16;33.77;;;20.57;;
21833;SDS011;11079;51.092;3.458;2023-03-01T03:30:42;29.33;;;19.00;;
21833;SDS011;11079;51.092;3.458;2023-03-01T03:33:12;27.33;;;18.77;;
21833;SDS011;11079;51.092;3.458;2023-03-01T03:35:47;29.53;;;19.70;;
21833;SDS011;11079;51.092;3.458;2023-03-01T03:38:15;27.03;;;19.00;;
21833;SDS011;11079;51.092;3.458;2023-03-01T03:41:00;31.40;;;19.33;;
21833;SDS011;11079;51.092;3.458;2023-03-01T03:43:28;29.97;;;18.57;;
21833;SDS011;11079;51.092;3.458;2023-03-01T03:45:57;32.67;;;19.40;;
21833;SDS011;11079;51.092;3.458;2023-03-01T03:48:23;28.87;;;20.50;;
21833;SDS011;11079;51.092;3.458;2023-03-01T03:50:51;31.47;;;19.40;;
21833;SDS011;11079;51.092;3.458;2023-03-01T03:53:20;28.10;;;20.23;;
21833;SDS011;11079;51.092;3.458;2023-03-01T03:55:48;32.23;;;20.20;;
21833;SDS011;11079;51.092;3.458;2023-03-01T03:58:14;29.60;;;19.50;;
21833;SDS011;11079;51.092;3.458;2023-03-01T04:00:42;32.77;;;19.70;;
21833;SDS011;11079;51.092;3.458;2023-03-01T04:03:10;30.90;;;20.23;;
21833;SDS011;11079;51.092;3.458;2023-03-01T04:05:38;34.83;;;21.17;;
21833;SDS011;11079;51.092;3.458;2023-03-01T04:08:05;31.13;;;20.53;;
21833;SDS011;11079;51.092;3.458;2023-03-01T04:10:36;33.87;;;20.70;;
21833;SDS011;11079;51.092;3.458;2023-03-01T04:13:06;32.17;;;20.27;;
21833;SDS011;11079;51.092;3.458;2023-03-01T04:15:34;37.43;;;22.07;;
21833;SDS011;11079;51.092;3.458;2023-03-01T04:18:00;36.77;;;21.70;;
21833;SDS011;11079;51.092;3.458;2023-03-01T04:20:28;31.33;;;20.40;;
21833;SDS011;11079;51.092;3.458;2023-03-01T04:22:57;34.10;;;19.93;;
21833;SDS011;11079;51.092;3.458;2023-03-01T04:25:24;27.83;;;19.47;;
21833;SDS011;11079;51.092;3.458;2023-03-01T04:27:53;32.53;;;20.23;;
21833;SDS011;11079;51.092;3.458;2023-03-01T04:30:22;32.50;;;20.63;;
21833;SDS011;11079;51.092;3.458;2023-03-01T04:32:50;33.47;;;22.00;;
21833;SDS011;11079;51.092;3.458;2023-03-01T04:35:16;35.77;;;20.93;;
21833;SDS011;11079;51.092;3.458;2023-03-01T04:37:44;36.70;;;21.50;;
21833;SDS011;11079;51.092;3.458;2023-03-01T04:40:10;33.40;;;20.47;;
21833;SDS011;11079;51.092;3.458;2023-03-01T04:42:40;31.63;;;19.43;;
21833;SDS011;11079;51.092;3.458;2023-03-01T04:45:08;31.30;;;19.33;;
21833;SDS011;11079;51.092;3.458;2023-03-01T04:47:38;32.40;;;19.57;;
21833;SDS011;11079;51.092;3.458;2023-03-01T04:50:06;29.97;;;19.87;;
21833;SDS011;11079;51.092;3.458;2023-03-01T04:52:34;33.33;;;20.40;;
21833;SDS011;11079;51.092;3.458;2023-03-01T04:55:01;35.40;;;20.23;;
21833;SDS011;11079;51.092;3.458;2023-03-01T04:57:28;33.83;;;21.03;;
21833;SDS011;11079;51.092;3.458;2023-03-01T04:59:54;31.63;;;20.00;;
21833;SDS011;11079;51.092;3.458;2023-03-01T05:02:20;30.83;;;20.27;;
21833;SDS011;11079;51.092;3.458;2023-03-01T05:04:45;29.60;;;19.03;;
21833;SDS011;11079;51.092;3.458;2023-03-01T05:07:12;34.77;;;19.90;;
21833;SDS011;11079;51.092;3.458;2023-03-01T05:09:45;30.73;;;19.80;;
21833;SDS011;11079;51.092;3.458;2023-03-01T05:12:11;30.27;;;19.40;;
21833;SDS011;11079;51.092;3.458;2023-03-01T05:14:38;32.37;;;19.73;;
21833;SDS011;11079;51.092;3.458;2023-03-01T05:17:04;31.00;;;18.60;;
21833;SDS011;11079;51.092;3.458;2023-03-01T05:19:31;34.30;;;19.60;;
21833;SDS011;11079;51.092;3.458;2023-03-01T05:21:57;28.97;;;19.70;;
21833;SDS011;11079;51.092;3.458;2023-03-01T05:24:27;27.83;;;18.97;;
21833;SDS011;11079;51.092;3.458;2023-03-01T05:26:54;31.33;;;18.07;;
21833;SDS011;11079;51.092;3.458;2023-03-01T05:29:24;30.87;;;18.93;;
21833;SDS011;11079;51.092;3.458;2023-03-01T05:31:55;29.27;;;18.10;;
21833;SDS011;11079;51.092;3.458;2023-03-01T05:34:23;30.37;;;18.23;;
21833;SDS011;11079;51.092;3.458;2023-03-01T05:36:50;31.03;;;18.33;;
21833;SDS011;11079;51.092;3.458;2023-03-01T05:39:18;32.13;;;19.53;;
21833;SDS011;11079;51.092;3.458;2023-03-01T05:41:56;30.87;;;18.37;;
21833;SDS011;11079;51.092;3.458;2023-03-01T05:44:26;28.70;;;18.20;;
21833;SDS011;11079;51.092;3.458;2023-03-01T05:46:53;29.73;;;18.50;;
21833;SDS011;11079;51.092;3.458;2023-03-01T05:49:22;28.17;;;18.17;;
21833;SDS011;11079;51.092;3.458;2023-03-01T05:51:52;27.70;;;17.47;;
21833;SDS011;11079;51.092;3.458;2023-03-01T05:54:24;26.70;;;17.23;;
21833;SDS011;11079;51.092;3.458;2023-03-01T05:56:50;32.87;;;18.53;;
21833;SDS011;11079;51.092;3.458;2023-03-01T05:59:16;26.30;;;17.60;;
21833;SDS011;11079;51.092;3.458;2023-03-01T06:01:44;29.37;;;18.13;;
21833;SDS011;11079;51.092;3.458;2023-03-01T06:04:12;28.87;;;16.93;;
21833;SDS011;11079;51.092;3.458;2023-03-01T06:06:38;27.27;;;17.03;;
21833;SDS011;11079;51.092;3.458;2023-03-01T06:09:04;28.43;;;18.70;;
21833;SDS011;11079;51.092;3.458;2023-03-01T06:11:33;29.43;;;17.87;;
21833;SDS011;11079;51.092;3.458;2023-03-01T06:14:02;31.20;;;19.47;;
21833;SDS011;11079;51.092;3.458;2023-03-01T06:16:32;29.63;;;18.90;;
21833;SDS011;11079;51.092;3.458;2023-03-01T06:18:58;26.83;;;17.60;;
21833;SDS011;11079;51.092;3.458;2023-03-01T06:21:24;27.50;;;17.97;;
21833;SDS011;11079;51.092;3.458;2023-03-01T06:23:53;29.17;;;19.27;;
21833;SDS011;11079;51.092;3.458;2023-03-01T06:26:19;37.57;;;19.63;;
21833;SDS011;11079;51.092;3.458;2023-03-01T06:28:44;31.27;;;18.23;;
21833;SDS011;11079;51.092;3.458;2023-03-01T06:31:12;31.00;;;19.03;;
21833;SDS011;11079;51.092;3.458;2023-03-01T06:33:40;26.63;;;18.63;;
21833;SDS011;11079;51.092;3.458;2023-03-01T06:36:10;28.87;;;18.73;;
21833;SDS011;11079;51.092;3.458;2023-03-01T06:38:35;31.87;;;18.77;;
21833;SDS011;11079;51.092;3.458;2023-03-01T06:41:01;26.97;;;17.43;;
21833;SDS011;11079;51.092;3.458;2023-03-01T06:43:27;28.93;;;17.90;;
21833;SDS011;11079;51.092;3.458;2023-03-01T06:45:52;28.93;;;18.70;;
21833;SDS011;11079;51.092;3.458;2023-03-01T06:48:18;28.13;;;18.50;;
21833;SDS011;11079;51.092;3.458;2023-03-01T06:50:44;32.13;;;18.90;;
21833;SDS011;11079;51.092;3.458;2023-03-01T06:53:09;26.67;;;17.90;;
21833;SDS011;11079;51.092;3.458;2023-03-01T06:55:36;28.87;;;17.77;;
21833;SDS011;11079;51.092;3.458;2023-03-01T06:58:03;26.63;;;17.43;;
21833;SDS011;11079;51.092;3.458;2023-03-01T07:00:32;30.33;;;17.70;;
21833;SDS011;11079;51.092;3.458;2023-03-01T07:03:09;24.47;;;16.03;;
21833;SDS011;11079;51.092;3.458;2023-03-01T07:05:37;22.33;;;15.53;;
21833;SDS011;11079;51.092;3.458;2023-03-01T07:08:08;20.93;;;15.27;;
21833;SDS011;11079;51.092;3.458;2023-03-01T07:10:43;21.33;;;14.50;;
21833;SDS011;11079;51.092;3.458;2023-03-01T07:13:16;18.10;;;12.47;;
21833;SDS011;11079;51.092;3.458;2023-03-01T07:40:21;17.23;;;11.00;;
21833;SDS011;11079;51.092;3.458;2023-03-01T07:46:04;15.02;;;10.50;;
21833;SDS011;11079;51.092;3.458;2023-03-01T07:49:13;14.07;;;10.07;;
21833;SDS011;11079;51.092;3.458;2023-03-01T14:35:55;8.45;;;5.20;;
21833;SDS011;11079;51.092;3.458;2023-03-01T14:38:34;6.32;;;4.47;;
21833;SDS011;11079;51.092;3.458;2023-03-01T14:41:28;8.30;;;4.93;;
21833;SDS011;11079;51.092;3.458;2023-03-01T14:47:25;6.60;;;4.60;;
21833;SDS011;11079;51.092;3.458;2023-03-01T14:50:05;7.45;;;4.15;;
21833;SDS011;11079;51.092;3.458;2023-03-01T14:52:59;5.60;;;4.97;;
21833;SDS011;11079;51.092;3.458;2023-03-01T14:58:09;6.80;;;4.53;;
21833;SDS011;11079;51.092;3.458;2023-03-01T15:00:57;7.32;;;4.32;;
21833;SDS011;11079;51.092;3.458;2023-03-01T15:03:50;5.60;;;4.25;;
21833;SDS011;11079;51.092;3.458;2023-03-01T15:06:29;5.45;;;4.30;;
21833;SDS011;11079;51.092;3.458;2023-03-01T15:08:58;6.38;;;4.75;;
21833;SDS011;11079;51.092;3.458;2023-03-01T15:12:03;5.63;;;4.28;;
21833;SDS011;11079;51.092;3.458;2023-03-01T15:15:36;6.15;;;5.03;;
21833;SDS011;11079;51.092;3.458;2023-03-01T15:18:20;7.70;;;5.20;;
21833;SDS011;11079;51.092;3.458;2023-03-01T15:21:27;9.32;;;5.10;;
21833;SDS011;11079;51.092;3.458;2023-03-01T15:24:13;7.60;;;5.03;;
21833;SDS011;11079;51.092;3.458;2023-03-01T15:29:44;7.38;;;5.15;;
21833;SDS011;11079;51.092;3.458;2023-03-01T15:32:35;6.53;;;4.60;;
21833;SDS011;11079;51.092;3.458;2023-03-01T15:41:04;7.93;;;6.03;;
21833;SDS011;11079;51.092;3.458;2023-03-01T15:43:51;9.05;;;5.57;;
21833;SDS011;11079;51.092;3.458;2023-03-01T15:48:47;6.68;;;5.03;;
21833;SDS011;11079;51.092;3.458;2023-03-01T15:51:17;6.68;;;5.03;;
21833;SDS011;11079;51.092;3.458;2023-03-01T15:53:49;6.60;;;5.68;;
21833;SDS011;11079;51.092;3.458;2023-03-01T15:56:18;7.15;;;5.50;;
21833;SDS011;11079;51.092;3.458;2023-03-01T15:58:47;8.27;;;6.60;;
21833;SDS011;11079;51.092;3.458;2023-03-01T16:01:15;8.40;;;5.43;;
21833;SDS011;11079;51.092;3.458;2023-03-01T16:03:42;8.07;;;5.53;;
21833;SDS011;11079;51.092;3.458;2023-03-01T16:06:18;8.82;;;6.07;;
21833;SDS011;11079;51.092;3.458;2023-03-01T16:08:44;7.30;;;4.75;;
21833;SDS011;11079;51.092;3.458;2023-03-01T16:11:16;7.40;;;5.22;;
21833;SDS011;11079;51.092;3.458;2023-03-01T16:13:43;6.72;;;5.40;;
21833;SDS011;11079;51.092;3.458;2023-03-01T16:16:12;7.53;;;5.50;;
21833;SDS011;11079;51.092;3.458;2023-03-01T16:18:42;7.28;;;5.28;;
21833;SDS011;11079;51.092;3.458;2023-03-01T16:21:12;8.25;;;5.55;;
21833;SDS011;11079;51.092;3.458;2023-03-01T16:23:40;7.80;;;5.45;;
21833;SDS011;11079;51.092;3.458;2023-03-01T16:26:13;6.05;;;5.43;;
21833;SDS011;11079;51.092;3.458;2023-03-01T16:28:44;7.57;;;5.13;;
21833;SDS011;11079;51.092;3.458;2023-03-01T16:31:13;10.27;;;6.28;;
21833;SDS011;11079;51.092;3.458;2023-03-01T16:33:42;7.78;;;5.88;;
21833;SDS011;11079;51.092;3.458;2023-03-01T16:36:15;8.82;;;6.30;;
21833;SDS011;11079;51.092;3.458;2023-03-01T16:38:50;9.40;;;5.60;;
21833;SDS011;11079;51.092;3.458;2023-03-01T16:44:08;10.32;;;6.15;;
21833;SDS011;11079;51.092;3.458;2023-03-01T16:46:34;10.05;;;5.75;;
21833;SDS011;11079;51.092;3.458;2023-03-01T16:49:08;7.68;;;5.93;;
21833;SDS011;11079;51.092;3.458;2023-03-01T16:51:54;7.45;;;6.13;;
21833;SDS011;11079;51.092;3.458;2023-03-01T16:58:12;11.25;;;6.13;;
21833;SDS011;11079;51.092;3.458;2023-03-01T17:00:40;7.88;;;6.10;;
21833;SDS011;11079;51.092;3.458;2023-03-01T17:03:08;9.75;;;6.03;;
21833;SDS011;11079;51.092;3.458;2023-03-01T17:05:39;18.08;;;8.35;;
21833;SDS011;11079;51.092;3.458;2023-03-01T17:08:05;10.45;;;6.60;;
21833;SDS011;11079;51.092;3.458;2023-03-01T17:10:37;10.40;;;6.82;;
21833;SDS011;11079;51.092;3.458;2023-03-01T17:13:06;11.07;;;6.45;;
21833;SDS011;11079;51.092;3.458;2023-03-01T17:15:41;16.23;;;9.80;;
21833;SDS011;11079;51.092;3.458;2023-03-01T17:18:15;12.95;;;7.70;;
21833;SDS011;11079;51.092;3.458;2023-03-01T17:20:43;10.95;;;6.85;;
21833;SDS011;11079;51.092;3.458;2023-03-01T17:23:09;22.30;;;11.65;;
21833;SDS011;11079;51.092;3.458;2023-03-01T17:25:48;33.40;;;20.13;;
21833;SDS011;11079;51.092;3.458;2023-03-01T17:28:14;17.75;;;11.55;;
21833;SDS011;11079;51.092;3.458;2023-03-01T17:34:06;14.70;;;7.35;;
21833;SDS011;11079;51.092;3.458;2023-03-01T17:39:33;13.03;;;9.30;;
21833;SDS011;11079;51.092;3.458;2023-03-01T17:45:25;18.88;;;10.85;;
21833;SDS011;11079;51.092;3.458;2023-03-01T17:47:50;17.77;;;12.48;;
21833;SDS011;11079;51.092;3.458;2023-03-01T17:50:16;14.00;;;8.98;;
21833;SDS011;11079;51.092;3.458;2023-03-01T17:52:42;12.45;;;9.23;;
21833;SDS011;11079;51.092;3.458;2023-03-01T17:55:08;13.00;;;8.53;;
21833;SDS011;11079;51.092;3.458;2023-03-01T17:57:36;9.70;;;8.70;;
21833;SDS011;11079;51.092;3.458;2023-03-01T18:00:04;11.20;;;8.00;;
21833;SDS011;11079;51.092;3.458;2023-03-01T18:02:31;10.87;;;7.93;;
21833;SDS011;11079;51.092;3.458;2023-03-01T18:04:57;10.98;;;7.88;;
21833;SDS011;11079;51.092;3.458;2023-03-01T18:07:26;12.73;;;7.87;;
21833;SDS011;11079;51.092;3.458;2023-03-01T18:09:51;10.55;;;7.18;;
21833;SDS011;11079;51.092;3.458;2023-03-01T18:12:17;9.67;;;7.43;;
21833;SDS011;11079;51.092;3.458;2023-03-01T18:14:43;9.73;;;7.27;;
21833;SDS011;11079;51.092;3.458;2023-03-01T18:17:08;11.33;;;7.47;;
21833;SDS011;11079;51.092;3.458;2023-03-01T18:19:39;12.70;;;8.43;;
21833;SDS011;11079;51.092;3.458;2023-03-01T18:22:07;12.45;;;8.02;;
21833;SDS011;11079;51.092;3.458;2023-03-01T18:24:34;13.17;;;8.73;;
21833;SDS011;11079;51.092;3.458;2023-03-01T18:27:01;15.50;;;10.80;;
21833;SDS011;11079;51.092;3.458;2023-03-01T18:29:27;16.50;;;11.80;;
21833;SDS011;11079;51.092;3.458;2023-03-01T18:31:52;15.00;;;9.37;;
21833;SDS011;11079;51.092;3.458;2023-03-01T18:34:18;10.43;;;8.33;;
21833;SDS011;11079;51.092;3.458;2023-03-01T18:36:44;11.60;;;8.53;;
21833;SDS011;11079;51.092;3.458;2023-03-01T18:39:10;12.10;;;8.20;;
21833;SDS011;11079;51.092;3.458;2023-03-01T18:41:35;13.37;;;8.60;;
21833;SDS011;11079;51.092;3.458;2023-03-01T18:44:03;13.37;;;8.53;;
21833;SDS011;11079;51.092;3.458;2023-03-01T18:46:29;11.60;;;8.10;;
21833;SDS011;11079;51.092;3.458;2023-03-01T18:48:55;13.53;;;8.57;;
21833;SDS011;11079;51.092;3.458;2023-03-01T18:51:22;13.07;;;8.90;;
21833;SDS011;11079;51.092;3.458;2023-03-01T18:53:50;10.70;;;8.57;;
21833;SDS011;11079;51.092;3.458;2023-03-01T18:56:16;12.47;;;8.27;;
21833;SDS011;11079;51.092;3.458;2023-03-01T18:58:42;15.87;;;10.37;;
21833;SDS011;11079;51.092;3.458;2023-03-01T19:01:19;16.97;;;11.67;;
21833;SDS011;11079;51.092;3.458;2023-03-01T19:03:47;18.70;;;11.57;;
21833;SDS011;11079;51.092;3.458;2023-03-01T19:06:13;14.73;;;9.97;;
21833;SDS011;11079;51.092;3.458;2023-03-01T19:08:39;16.83;;;9.73;;
21833;SDS011;11079;51.092;3.458;2023-03-01T19:11:06;16.53;;;9.20;;
21833;SDS011;11079;51.092;3.458;2023-03-01T19:13:33;13.00;;;8.83;;
21833;SDS011;11079;51.092;3.458;2023-03-01T19:16:11;12.50;;;8.90;;
21833;SDS011;11079;51.092;3.458;2023-03-01T19:18:39;14.10;;;9.57;;
21833;SDS011;11079;51.092;3.458;2023-03-01T19:21:06;17.20;;;9.60;;
21833;SDS011;11079;51.092;3.458;2023-03-01T19:23:33;14.27;;;9.57;;
21833;SDS011;11079;51.092;3.458;2023-03-01T19:26:04;14.70;;;9.40;;
21833;SDS011;11079;51.092;3.458;2023-03-01T19:28:32;15.30;;;8.83;;
21833;SDS011;11079;51.092;3.458;2023-03-01T19:30:59;12.70;;;9.23;;
21833;SDS011;11079;51.092;3.458;2023-03-01T19:33:28;12.97;;;9.47;;
21833;SDS011;11079;51.092;3.458;2023-03-01T19:35:54;17.27;;;9.87;;
21833;SDS011;11079;51.092;3.458;2023-03-01T19:38:20;15.43;;;9.97;;
21833;SDS011;11079;51.092;3.458;2023-03-01T19:40:46;13.07;;;9.07;;
21833;SDS011;11079;51.092;3.458;2023-03-01T19:43:12;12.50;;;8.97;;
21833;SDS011;11079;51.092;3.458;2023-03-01T19:45:38;11.83;;;8.67;;
21833;SDS011;11079;51.092;3.458;2023-03-01T19:48:03;13.97;;;9.00;;
21833;SDS011;11079;51.092;3.458;2023-03-01T19:50:29;13.40;;;8.67;;
21833;SDS011;11079;51.092;3.458;2023-03-01T19:52:55;12.33;;;8.37;;
21833;SDS011;11079;51.092;3.458;2023-03-01T19:55:20;12.77;;;8.70;;
21833;SDS011;11079;51.092;3.458;2023-03-01T19:57:46;12.23;;;8.83;;
21833;SDS011;11079;51.092;3.458;2023-03-01T20:00:12;13.13;;;8.80;;
21833;SDS011;11079;51.092;3.458;2023-03-01T20:02:38;12.03;;;8.57;;
21833;SDS011;11079;51.092;3.458;2023-03-01T20:05:04;13.53;;;8.97;;
21833;SDS011;11079;51.092;3.458;2023-03-01T20:07:30;13.60;;;8.37;;
21833;SDS011;11079;51.092;3.458;2023-03-01T20:09:56;13.63;;;9.13;;
21833;SDS011;11079;51.092;3.458;2023-03-01T20:12:21;14.83;;;9.63;;
21833;SDS011;11079;51.092;3.458;2023-03-01T20:14:47;13.47;;;8.77;;
21833;SDS011;11079;51.092;3.458;2023-03-01T20:17:15;12.23;;;9.23;;
21833;SDS011;11079;51.092;3.458;2023-03-01T20:19:41;12.60;;;8.70;;
21833;SDS011;11079;51.092;3.458;2023-03-01T20:22:06;14.40;;;10.27;;
21833;SDS011;11079;51.092;3.458;2023-03-01T20:24:32;17.87;;;10.47;;
21833;SDS011;11079;51.092;3.458;2023-03-01T20:26:59;13.50;;;9.73;;
21833;SDS011;11079;51.092;3.458;2023-03-01T20:29:25;13.93;;;9.43;;
21833;SDS011;11079;51.092;3.458;2023-03-01T20:31:50;13.23;;;10.37;;
21833;SDS011;11079;51.092;3.458;2023-03-01T20:34:16;15.13;;;10.20;;
21833;SDS011;11079;51.092;3.458;2023-03-01T20:36:42;15.53;;;10.80;;
21833;SDS011;11079;51.092;3.458;2023-03-01T20:39:08;16.07;;;10.67;;
21833;SDS011;11079;51.092;3.458;2023-03-01T20:41:36;15.07;;;10.60;;
21833;SDS011;11079;51.092;3.458;2023-03-01T20:44:02;21.20;;;11.40;;
21833;SDS011;11079;51.092;3.458;2023-03-01T20:46:30;19.40;;;12.30;;
21833;SDS011;11079;51.092;3.458;2023-03-01T20:48:57;18.83;;;11.20;;
21833;SDS011;11079;51.092;3.458;2023-03-01T20:51:23;17.83;;;11.47;;
21833;SDS011;11079;51.092;3.458;2023-03-01T20:53:49;13.57;;;10.60;;
21833;SDS011;11079;51.092;3.458;2023-03-01T20:56:15;17.30;;;11.17;;
21833;SDS011;11079;51.092;3.458;2023-03-01T20:58:41;16.70;;;11.10;;
21833;SDS011;11079;51.092;3.458;2023-03-01T21:01:08;18.17;;;11.43;;
21833;SDS011;11079;51.092;3.458;2023-03-01T21:03:35;16.77;;;11.50;;
21833;SDS011;11079;51.092;3.458;2023-03-01T21:06:02;16.27;;;11.80;;
21833;SDS011;11079;51.092;3.458;2023-03-01T21:08:30;17.37;;;12.20;;
21833;SDS011;11079;51.092;3.458;2023-03-01T21:10:56;15.60;;;11.50;;
21833;SDS011;11079;51.092;3.458;2023-03-01T21:13:22;18.03;;;11.03;;
21833;SDS011;11079;51.092;3.458;2023-03-01T21:18:44;16.60;;;11.77;;
21833;SDS011;11079;51.092;3.458;2023-03-01T21:21:11;17.90;;;11.33;;
21833;SDS011;11079;51.092;3.458;2023-03-01T21:23:42;17.77;;;10.83;;
21833;SDS011;11079;51.092;3.458;2023-03-01T21:26:16;14.57;;;10.40;;
21833;SDS011;11079;51.092;3.458;2023-03-01T21:28:46;13.63;;;10.27;;
21833;SDS011;11079;51.092;3.458;2023-03-01T21:31:18;17.90;;;11.97;;
21833;SDS011;11079;51.092;3.458;2023-03-01T21:33:51;14.70;;;10.80;;
21833;SDS011;11079;51.092;3.458;2023-03-01T21:36:19;16.23;;;10.83;;
21833;SDS011;11079;51.092;3.458;2023-03-01T21:38:46;17.40;;;10.93;;
21833;SDS011;11079;51.092;3.458;2023-03-01T21:41:22;16.50;;;11.03;;
21833;SDS011;11079;51.092;3.458;2023-03-01T21:44:00;22.00;;;12.10;;
21833;SDS011;11079;51.092;3.458;2023-03-01T21:46:27;17.93;;;11.63;;
21833;SDS011;11079;51.092;3.458;2023-03-01T21:48:54;19.20;;;12.27;;
21833;SDS011;11079;51.092;3.458;2023-03-01T21:51:22;18.17;;;11.57;;
21833;SDS011;11079;51.092;3.458;2023-03-01T21:53:49;16.60;;;11.27;;
21833;SDS011;11079;51.092;3.458;2023-03-01T21:56:16;17.83;;;11.53;;
21833;SDS011;11079;51.092;3.458;2023-03-01T21:58:43;19.90;;;12.23;;
21833;SDS011;11079;51.092;3.458;2023-03-01T22:01:10;17.20;;;11.60;;
21833;SDS011;11079;51.092;3.458;2023-03-01T22:03:39;21.20;;;11.97;;
21833;SDS011;11079;51.092;3.458;2023-03-01T22:06:10;19.53;;;11.93;;
21833;SDS011;11079;51.092;3.458;2023-03-01T22:09:04;18.40;;;10.93;;
21833;SDS011;11079;51.092;3.458;2023-03-01T22:12:17;15.33;;;10.63;;
21833;SDS011;11079;51.092;3.458;2023-03-01T22:14:42;17.17;;;10.77;;
21833;SDS011;11079;51.092;3.458;2023-03-01T22:17:08;15.37;;;10.37;;
21833;SDS011;11079;51.092;3.458;2023-03-01T22:19:33;16.83;;;11.33;;
21833;SDS011;11079;51.092;3.458;2023-03-01T22:21:59;16.50;;;10.70;;
21833;SDS011;11079;51.092;3.458;2023-03-01T22:24:25;17.10;;;11.63;;
21833;SDS011;11079;51.092;3.458;2023-03-01T22:26:51;17.50;;;10.90;;
21833;SDS011;11079;51.092;3.458;2023-03-01T22:29:21;15.43;;;10.43;;
21833;SDS011;11079;51.092;3.458;2023-03-01T22:32:02;16.40;;;9.90;;
21833;SDS011;11079;51.092;3.458;2023-03-01T22:34:28;14.70;;;10.43;;
21833;SDS011;11079;51.092;3.458;2023-03-01T22:36:54;14.83;;;10.27;;
21833;SDS011;11079;51.092;3.458;2023-03-01T22:39:20;14.17;;;9.47;;
21833;SDS011;11079;51.092;3.458;2023-03-01T22:41:46;15.23;;;9.17;;
21833;SDS011;11079;51.092;3.458;2023-03-01T22:44:14;13.87;;;8.97;;
21833;SDS011;11079;51.092;3.458;2023-03-01T22:46:43;14.80;;;9.60;;
21833;SDS011;11079;51.092;3.458;2023-03-01T22:49:09;16.53;;;10.00;;